Time;durP1;ratioP1;P1;durP2;ratioP2;P2;SDS_P1;SDS_P2;PMS_P1;PMS_P2;Temp;Humidity;BMP_temperature;BMP_pressure;BME280_temperature;BME280_humidity;BME280_pressure;Samples;Min_cycle;Max_cycle;Signal;HPM_P1;HPM_P2
2021/01/13 00:00:11;;;;;;;5.70;2.40;;;;;;;;;;4829281;29;20186;-83
2021/01/13 00:02:42;;;;;;;5.07;2.42;;;;;;;;;;4829059;29;20182;-83
2021/01/13 00:05:10;;;;;;;6.80;2.55;;;;;;;;;;4829185;29;20194;-83
2021/01/13 00:07:37;;;;;;;5.20;2.08;;;;;;;;;;4829117;29;20605;-84
2021/01/13 00:10:05;;;;;;;8.02;3.13;;;;;;;;;;4829622;29;20186;-84
2021/01/13 00:12:33;;;;;;;8.00;2.97;;;;;;;;;;4828898;29;20206;-88
2021/01/13 00:15:00;;;;;;;6.57;2.53;;;;;;;;;;4828583;29;20198;-84
2021/01/13 00:17:27;;;;;;;9.45;2.50;;;;;;;;;;4829277;29;20222;-83
2021/01/13 00:19:56;;;;;;;4.70;2.92;;;;;;;;;;4828872;29;20238;-82
2021/01/13 00:22:24;;;;;;;9.75;2.88;;;;;;;;;;4829259;29;20190;-83
2021/01/13 00:24:51;;;;;;;5.13;1.70;;;;;;;;;;4828454;29;20575;-82
2021/01/13 00:27:21;;;;;;;7.80;2.35;;;;;;;;;;4828570;29;20202;-82
2021/01/13 00:29:49;;;;;;;5.70;2.75;;;;;;;;;;4828767;29;20472;-82
2021/01/13 00:32:16;;;;;;;5.88;2.10;;;;;;;;;;4828904;29;20261;-83
2021/01/13 00:34:43;;;;;;;8.02;2.50;;;;;;;;;;4828563;29;20285;-81
2021/01/13 00:37:11;;;;;;;6.35;1.90;;;;;;;;;;4828753;29;20572;-83
2021/01/13 00:39:38;;;;;;;8.82;2.10;;;;;;;;;;4828691;29;20201;-81
2021/01/13 00:42:06;;;;;;;3.85;2.08;;;;;;;;;;4828895;29;20206;-81
2021/01/13 00:44:32;;;;;;;4.10;2.80;;;;;;;;;;4828435;29;20205;-81
2021/01/13 00:46:59;;;;;;;2.88;2.47;;;;;;;;;;4828889;29;20189;-81
2021/01/13 00:49:26;;;;;;;4.13;2.28;;;;;;;;;;4819584;29;20677;-81
2021/01/13 00:51:53;;;;;;;5.78;2.22;;;;;;;;;;4819644;29;20209;-81
2021/01/13 00:54:21;;;;;;;6.57;2.30;;;;;;;;;;4828285;29;20247;-81
2021/01/13 00:56:49;;;;;;;8.20;3.13;;;;;;;;;;4828458;29;20229;-81
2021/01/13 00:59:17;;;;;;;5.35;2.03;;;;;;;;;;4828670;29;20182;-81
2021/01/13 01:01:45;;;;;;;4.47;2.35;;;;;;;;;;4828716;29;20205;-81
2021/01/13 01:04:13;;;;;;;7.68;2.55;;;;;;;;;;4831085;29;20208;-83
2021/01/13 01:06:40;;;;;;;3.17;1.83;;;;;;;;;;4831822;29;20205;-82
2021/01/13 01:09:08;;;;;;;4.20;2.53;;;;;;;;;;4831360;29;20206;-83
2021/01/13 01:11:38;;;;;;;5.15;2.80;;;;;;;;;;4831849;29;20568;-83
2021/01/13 01:14:06;;;;;;;9.55;2.72;;;;;;;;;;4831388;29;20224;-82
2021/01/13 01:16:35;;;;;;;8.52;2.40;;;;;;;;;;4831681;29;20261;-82
2021/01/13 01:19:03;;;;;;;7.35;2.22;;;;;;;;;;4831412;29;20246;-83
2021/01/13 01:21:30;;;;;;;7.18;2.63;;;;;;;;;;4831887;29;20204;-82
2021/01/13 01:23:57;;;;;;;6.43;2.70;;;;;;;;;;4831349;29;20205;-83
2021/01/13 01:26:24;;;;;;;4.63;2.13;;;;;;;;;;4831750;29;20198;-83
2021/01/13 01:28:52;;;;;;;4.72;2.42;;;;;;;;;;4831664;29;20221;-83
2021/01/13 01:31:19;;;;;;;6.07;2.85;;;;;;;;;;4831749;29;20190;-83
2021/01/13 01:33:46;;;;;;;5.38;1.98;;;;;;;;;;4831352;29;20201;-83
2021/01/13 01:36:16;;;;;;;4.93;2.33;;;;;;;;;;4831102;29;20225;-84
2021/01/13 01:38:43;;;;;;;5.35;2.42;;;;;;;;;;4831659;29;20198;-83
2021/01/13 01:41:15;;;;;;;6.65;2.53;;;;;;;;;;4831802;29;20270;-86
2021/01/13 01:43:45;;;;;;;15.77;2.85;;;;;;;;;;4831566;29;20194;-84
2021/01/13 01:46:13;;;;;;;7.38;3.38;;;;;;;;;;4831796;29;20242;-84
2021/01/13 01:48:51;;;;;;;5.65;2.75;;;;;;;;;;4831597;29;20214;-85
2021/01/13 01:51:22;;;;;;;3.10;1.88;;;;;;;;;;4831380;29;20190;-85
2021/01/13 01:54:16;;;;;;;5.75;2.58;;;;;;;;;;4831610;29;20257;-85
2021/01/13 01:56:45;;;;;;;7.72;2.53;;;;;;;;;;4831786;29;20222;-85
2021/01/13 01:59:14;;;;;;;4.72;1.83;;;;;;;;;;4831486;29;20204;-85
2021/01/13 02:01:44;;;;;;;5.07;1.92;;;;;;;;;;4832328;29;20198;-85
2021/01/13 02:04:16;;;;;;;7.63;2.50;;;;;;;;;;4832464;29;20266;-84
2021/01/13 02:07:31;;;;;;;10.68;2.60;;;;;;;;;;4831165;29;20194;-86
2021/01/13 02:10:00;;;;;;;5.00;2.72;;;;;;;;;;4792074;29;20603;-85
2021/01/13 02:12:34;;;;;;;7.70;2.53;;;;;;;;;;4781052;29;20217;-85
2021/01/13 02:15:04;;;;;;;6.95;2.50;;;;;;;;;;4831045;29;20201;-85
2021/01/13 02:17:38;;;;;;;3.88;2.10;;;;;;;;;;4832183;29;20270;-85
2021/01/13 02:20:09;;;;;;;6.28;2.58;;;;;;;;;;4813167;29;20195;-85
2021/01/13 02:22:54;;;;;;;11.95;3.28;;;;;;;;;;4813132;29;20195;-85
2021/01/13 02:26:23;;;;;;;4.20;2.38;;;;;;;;;;4813081;29;20195;-85
2021/01/13 02:29:00;;;;;;;4.50;2.67;;;;;;;;;;4757810;30;20212;-85
2021/01/13 02:31:34;;;;;;;4.40;2.38;;;;;;;;;;4757611;30;20489;-86
2021/01/13 02:34:22;;;;;;;6.55;1.90;;;;;;;;;;4757620;30;20201;-84
2021/01/13 02:37:35;;;;;;;5.20;2.38;;;;;;;;;;4722725;30;20230;-86
2021/01/13 02:40:08;;;;;;;4.43;2.00;;;;;;;;;;4670475;30;20211;-83
2021/01/13 02:42:38;;;;;;;5.70;1.88;;;;;;;;;;4685625;30;20246;-83
2021/01/13 02:45:11;;;;;;;6.10;2.50;;;;;;;;;;4687214;30;20211;-83
2021/01/13 02:48:07;;;;;;;8.25;2.33;;;;;;;;;;4687248;30;20211;-84
2021/01/13 02:50:36;;;;;;;8.10;1.95;;;;;;;;;;4687079;30;20587;-82
2021/01/13 02:53:59;;;;;;;5.40;3.13;;;;;;;;;;4686780;30;20188;-82
2021/01/13 02:56:40;;;;;;;9.13;3.00;;;;;;;;;;4652759;30;20263;-81
2021/01/13 02:59:13;;;;;;;12.75;2.40;;;;;;;;;;4652871;30;20227;-83
2021/01/13 03:01:42;;;;;;;7.82;2.30;;;;;;;;;;4652750;30;20213;-82
2021/01/13 03:04:11;;;;;;;9.48;3.70;;;;;;;;;;4652309;30;20213;-83
2021/01/13 03:06:44;;;;;;;5.72;2.72;;;;;;;;;;4638461;30;20230;-83
2021/01/13 03:09:12;;;;;;;14.05;3.45;;;;;;;;;;4652817;30;20295;-83
2021/01/13 03:11:40;;;;;;;7.22;2.08;;;;;;;;;;4652626;30;20204;-83
2021/01/13 03:14:20;;;;;;;5.25;2.53;;;;;;;;;;4661198;30;20211;-82
2021/01/13 03:17:03;;;;;;;3.78;2.08;;;;;;;;;;4702370;30;20508;-83
2021/01/13 03:20:01;;;;;;;9.38;2.65;;;;;;;;;;4765496;30;20308;-83
2021/01/13 03:22:31;;;;;;;4.80;1.95;;;;;;;;;;4686194;30;20690;-84
2021/01/13 03:25:04;;;;;;;3.17;2.00;;;;;;;;;;4685868;30;20215;-83
2021/01/13 03:27:34;;;;;;;4.60;1.85;;;;;;;;;;4672311;30;20212;-83
2021/01/13 03:30:04;;;;;;;7.30;2.55;;;;;;;;;;4686542;30;20559;-84
2021/01/13 03:32:42;;;;;;;8.60;2.47;;;;;;;;;;4710785;30;20215;-83
2021/01/13 03:35:12;;;;;;;7.65;2.03;;;;;;;;;;4756079;30;20454;-83
2021/01/13 03:37:58;;;;;;;7.47;3.22;;;;;;;;;;4756043;30;20209;-83
2021/01/13 03:40:29;;;;;;;9.63;2.80;;;;;;;;;;4756104;30;20208;-82
2021/01/13 03:42:58;;;;;;;6.78;1.92;;;;;;;;;;4755434;30;20208;-84
2021/01/13 03:45:36;;;;;;;7.10;2.38;;;;;;;;;;4755812;30;20313;-84
2021/01/13 03:48:17;;;;;;;4.53;1.88;;;;;;;;;;4755862;30;20225;-83
2021/01/13 03:50:46;;;;;;;4.90;2.17;;;;;;;;;;4755951;30;20212;-84
2021/01/13 03:53:15;;;;;;;8.95;2.30;;;;;;;;;;4755407;30;20305;-83
2021/01/13 03:55:43;;;;;;;5.40;1.98;;;;;;;;;;4756079;30;20278;-84
2021/01/13 03:58:44;;;;;;;4.93;2.20;;;;;;;;;;4755424;30;20232;-83
2021/01/13 04:01:57;;;;;;;7.13;2.25;;;;;;;;;;4829408;29;20293;-83
2021/01/13 04:04:38;;;;;;;6.47;2.15;;;;;;;;;;4801270;29;20569;-83
2021/01/13 04:07:10;;;;;;;5.38;2.50;;;;;;;;;;4829012;29;20194;-83
2021/01/13 04:09:38;;;;;;;6.70;2.25;;;;;;;;;;4829443;29;20225;-84
2021/01/13 04:12:12;;;;;;;8.15;2.28;;;;;;;;;;4828743;29;20197;-82
2021/01/13 04:15:01;;;;;;;5.63;2.47;;;;;;;;;;4829135;29;20193;-83
2021/01/13 04:17:29;;;;;;;7.65;2.45;;;;;;;;;;4823942;29;20237;-82
2021/01/13 04:19:58;;;;;;;10.63;2.45;;;;;;;;;;4828536;29;20242;-83
2021/01/13 04:22:26;;;;;;;5.53;3.25;;;;;;;;;;4828223;29;20210;-83
2021/01/13 04:24:54;;;;;;;9.38;2.60;;;;;;;;;;4829066;29;20491;-81
2021/01/13 04:27:22;;;;;;;8.98;3.00;;;;;;;;;;4828957;29;20190;-83
2021/01/13 04:29:49;;;;;;;5.95;2.15;;;;;;;;;;4828666;29;20204;-83
2021/01/13 04:32:17;;;;;;;4.35;1.67;;;;;;;;;;4828453;29;20461;-83
2021/01/13 04:34:44;;;;;;;4.93;1.90;;;;;;;;;;4828882;29;20258;-83
2021/01/13 04:37:12;;;;;;;6.63;2.50;;;;;;;;;;4828643;29;20218;-83
2021/01/13 04:39:41;;;;;;;5.22;2.17;;;;;;;;;;4828866;29;20269;-83
2021/01/13 04:42:11;;;;;;;7.13;1.80;;;;;;;;;;4797200;29;20202;-82
2021/01/13 04:44:57;;;;;;;7.55;3.85;;;;;;;;;;4828683;29;20194;-83
2021/01/13 04:47:51;;;;;;;13.65;6.13;;;;;;;;;;4828497;29;20204;-83
2021/01/13 04:50:19;;;;;;;10.13;3.80;;;;;;;;;;4828771;29;20301;-83
2021/01/13 04:52:49;;;;;;;6.35;3.10;;;;;;;;;;4827967;29;20194;-83
2021/01/13 04:55:24;;;;;;;4.78;1.98;;;;;;;;;;4828357;29;20556;-82
2021/01/13 04:58:56;;;;;;;8.02;2.85;;;;;;;;;;4828337;29;20596;-84
2021/01/13 05:02:05;;;;;;;11.35;2.60;;;;;;;;;;4828170;29;20201;-83
2021/01/13 05:05:00;;;;;;;9.48;2.67;;;;;;;;;;4828553;29;20210;-83
2021/01/13 05:07:38;;;;;;;5.55;2.88;;;;;;;;;;4828540;29;20214;-82
2021/01/13 05:10:12;;;;;;;2.42;1.80;;;;;;;;;;4828469;29;20208;-82
2021/01/13 05:12:54;;;;;;;5.03;2.15;;;;;;;;;;4828789;29;20216;-82
2021/01/13 05:15:24;;;;;;;8.85;3.10;;;;;;;;;;4828820;29;20251;-82
2021/01/13 05:18:10;;;;;;;5.53;2.40;;;;;;;;;;4828445;29;20221;-82
2021/01/13 05:20:39;;;;;;;7.70;2.10;;;;;;;;;;4828747;29;20258;-83
2021/01/13 05:23:08;;;;;;;4.28;2.13;;;;;;;;;;4782998;29;20216;-83
2021/01/13 05:25:42;;;;;;;6.03;2.47;;;;;;;;;;4828734;29;20233;-83
2021/01/13 05:28:20;;;;;;;6.40;3.40;;;;;;;;;;4828460;29;20320;-83
2021/01/13 05:30:50;;;;;;;9.45;2.63;;;;;;;;;;4828810;29;20528;-84
2021/01/13 05:33:19;;;;;;;6.78;3.13;;;;;;;;;;4828687;29;20226;-84
2021/01/13 05:35:51;;;;;;;10.77;3.28;;;;;;;;;;4828648;29;20202;-84
2021/01/13 05:38:39;;;;;;;3.58;2.13;;;;;;;;;;4828569;29;20222;-83
2021/01/13 05:41:11;;;;;;;8.30;3.10;;;;;;;;;;4828693;29;20194;-84
2021/01/13 05:43:43;;;;;;;4.95;2.75;;;;;;;;;;4828415;29;20206;-84
2021/01/13 05:46:13;;;;;;;5.05;2.40;;;;;;;;;;4828438;29;20247;-84
2021/01/13 05:48:42;;;;;;;10.23;2.92;;;;;;;;;;4829192;29;20294;-84
2021/01/13 05:51:10;;;;;;;4.32;2.17;;;;;;;;;;4832126;29;20190;-84
2021/01/13 05:53:38;;;;;;;6.57;2.88;;;;;;;;;;4831664;29;20190;-84
2021/01/13 05:56:06;;;;;;;5.18;2.53;;;;;;;;;;4832483;29;20239;-83
2021/01/13 05:58:35;;;;;;;12.73;2.85;;;;;;;;;;4830711;29;20230;-84
2021/01/13 06:01:03;;;;;;;6.10;4.10;;;;;;;;;;4830774;29;20220;-83
2021/01/13 06:03:31;;;;;;;6.75;2.15;;;;;;;;;;4831191;29;20542;-84
2021/01/13 06:06:00;;;;;;;6.95;2.65;;;;;;;;;;4785438;29;20221;-83
2021/01/13 06:08:31;;;;;;;2.80;1.90;;;;;;;;;;4831080;29;20254;-83
2021/01/13 06:11:01;;;;;;;4.38;2.47;;;;;;;;;;4831389;29;20198;-83
2021/01/13 06:13:33;;;;;;;6.40;2.08;;;;;;;;;;4831243;29;20480;-83
2021/01/13 06:16:06;;;;;;;11.05;2.88;;;;;;;;;;4830939;29;20572;-84
2021/01/13 06:18:36;;;;;;;5.55;2.67;;;;;;;;;;4830863;29;20245;-83
2021/01/13 06:21:11;;;;;;;16.98;3.70;;;;;;;;;;4831239;29;20271;-83
2021/01/13 06:23:50;;;;;;;6.70;2.80;;;;;;;;;;4785169;29;20198;-83
2021/01/13 06:26:18;;;;;;;3.97;2.28;;;;;;;;;;4830788;29;20556;-84
2021/01/13 06:29:42;;;;;;;6.32;3.50;;;;;;;;;;4830674;29;20198;-84
2021/01/13 06:32:31;;;;;;;4.95;2.90;;;;;;;;;;4830999;29;20202;-83
2021/01/13 06:35:06;;;;;;;3.95;2.20;;;;;;;;;;4830987;29;20242;-83
2021/01/13 06:37:38;;;;;;;5.47;2.30;;;;;;;;;;4830863;29;20190;-83
2021/01/13 06:40:14;;;;;;;5.95;2.38;;;;;;;;;;4830907;29;20214;-83
2021/01/13 06:42:41;;;;;;;3.88;2.10;;;;;;;;;;4830547;29;20453;-83
2021/01/13 06:45:10;;;;;;;3.25;2.47;;;;;;;;;;4830799;29;20198;-83
2021/01/13 06:47:53;;;;;;;4.53;2.35;;;;;;;;;;4830723;29;20186;-83
2021/01/13 06:50:35;;;;;;;4.93;2.20;;;;;;;;;;4830864;29;20194;-84
2021/01/13 06:53:07;;;;;;;7.07;3.17;;;;;;;;;;4830750;29;20198;-84
2021/01/13 06:55:37;;;;;;;3.92;2.13;;;;;;;;;;4830878;29;20198;-83
2021/01/13 06:58:13;;;;;;;6.05;2.50;;;;;;;;;;4830305;29;20210;-84
2021/01/13 07:00:41;;;;;;;12.13;2.40;;;;;;;;;;4830637;29;20448;-82
2021/01/13 07:03:25;;;;;;;6.80;2.83;;;;;;;;;;4830620;29;20202;-83
2021/01/13 07:05:53;;;;;;;7.28;3.17;;;;;;;;;;4837941;29;20309;-82
2021/01/13 07:08:20;;;;;;;15.38;2.45;;;;;;;;;;4848602;29;20201;-84
2021/01/13 07:10:47;;;;;;;11.07;3.00;;;;;;;;;;4801660;29;20567;-83
2021/01/13 07:13:15;;;;;;;3.28;2.35;;;;;;;;;;4848033;29;20200;-84
2021/01/13 07:15:43;;;;;;;10.93;2.95;;;;;;;;;;4848467;29;20193;-85
2021/01/13 07:18:12;;;;;;;4.65;2.70;;;;;;;;;;4844934;29;20257;-84
2021/01/13 07:20:40;;;;;;;6.95;3.35;;;;;;;;;;4830003;29;20202;-84
2021/01/13 07:23:08;;;;;;;8.93;2.78;;;;;;;;;;4830194;29;20206;-84
2021/01/13 07:25:45;;;;;;;4.80;2.38;;;;;;;;;;4830013;29;20194;-84
2021/01/13 07:28:13;;;;;;;11.05;2.90;;;;;;;;;;4836352;29;20193;-84
2021/01/13 07:30:41;;;;;;;7.18;2.95;;;;;;;;;;4848297;29;20185;-84
2021/01/13 07:33:12;;;;;;;5.82;3.00;;;;;;;;;;4828685;29;20217;-84
2021/01/13 07:35:46;;;;;;;10.32;4.10;;;;;;;;;;4829979;29;20202;-84
2021/01/13 07:38:16;;;;;;;4.82;2.33;;;;;;;;;;4829818;29;20209;-85
2021/01/13 07:40:59;;;;;;;6.75;4.35;;;;;;;;;;4829604;29;20487;-84
2021/01/13 07:44:14;;;;;;;6.60;2.13;;;;;;;;;;4798653;29;20306;-84
2021/01/13 07:47:00;;;;;;;6.63;2.70;;;;;;;;;;4738187;30;20549;-84
2021/01/13 07:49:47;;;;;;;4.55;2.83;;;;;;;;;;4738457;30;20236;-84
2021/01/13 07:52:18;;;;;;;2.10;1.90;;;;;;;;;;4738683;30;20223;-85
2021/01/13 07:54:50;;;;;;;3.95;2.30;;;;;;;;;;4738578;30;20618;-85
2021/01/13 07:57:24;;;;;;;3.55;1.80;;;;;;;;;;4738381;30;20217;-85
2021/01/13 08:00:06;;;;;;;9.07;2.15;;;;;;;;;;4738505;30;20234;-88
2021/01/13 08:03:43;;;;;;;3.30;2.15;;;;;;;;;;4695854;30;20209;-85
2021/01/13 08:06:33;;;;;;;5.50;2.22;;;;;;;;;;4686199;30;20285;-85
2021/01/13 08:09:17;;;;;;;4.65;2.40;;;;;;;;;;4686263;30;20273;-85
2021/01/13 08:12:49;;;;;;;4.05;1.92;;;;;;;;;;4728709;30;20216;-84
2021/01/13 08:16:07;;;;;;;4.13;2.10;;;;;;;;;;4738708;30;20562;-84
2021/01/13 08:19:40;;;;;;;3.38;1.77;;;;;;;;;;4744753;30;20520;-85
2021/01/13 08:22:15;;;;;;;5.60;2.40;;;;;;;;;;4756267;30;20560;-85
2021/01/13 08:24:43;;;;;;;2.60;1.60;;;;;;;;;;4829378;29;20289;-85
2021/01/13 08:27:12;;;;;;;7.53;2.95;;;;;;;;;;4829198;29;20201;-84
2021/01/13 08:29:40;;;;;;;4.03;2.40;;;;;;;;;;4828545;29;20209;-85
2021/01/13 08:32:09;;;;;;;3.13;2.15;;;;;;;;;;4830686;29;20610;-86
2021/01/13 08:34:39;;;;;;;4.72;2.20;;;;;;;;;;4847497;29;20197;-85
2021/01/13 08:37:07;;;;;;;5.20;2.67;;;;;;;;;;4847156;29;20226;-85
2021/01/13 08:39:38;;;;;;;4.32;2.17;;;;;;;;;;4847126;29;20285;-85
2021/01/13 08:42:24;;;;;;;5.00;2.30;;;;;;;;;;4847508;29;20209;-86
2021/01/13 08:44:54;;;;;;;10.50;2.55;;;;;;;;;;4847079;29;20572;-86
2021/01/13 08:47:22;;;;;;;3.90;2.10;;;;;;;;;;4847045;29;20185;-86
2021/01/13 08:49:49;;;;;;;4.00;2.45;;;;;;;;;;4847390;29;20225;-86
2021/01/13 08:52:21;;;;;;;6.25;2.50;;;;;;;;;;4847040;29;20189;-86
2021/01/13 08:55:16;;;;;;;4.22;2.50;;;;;;;;;;4847228;29;20589;-86
2021/01/13 08:58:03;;;;;;;4.20;2.85;;;;;;;;;;4847227;29;20212;-85
2021/01/13 09:00:32;;;;;;;5.10;2.60;;;;;;;;;;4846843;29;20580;-86
2021/01/13 09:03:07;;;;;;;4.85;2.38;;;;;;;;;;4847108;29;20189;-86
2021/01/13 09:05:36;;;;;;;2.92;2.42;;;;;;;;;;4847818;29;20193;-86
2021/01/13 09:08:05;;;;;;;6.20;2.42;;;;;;;;;;4847019;29;20272;-86
2021/01/13 09:10:55;;;;;;;6.70;2.75;;;;;;;;;;4847040;29;20223;-84
2021/01/13 09:13:43;;;;;;;4.88;2.58;;;;;;;;;;4842809;29;20220;-84
2021/01/13 09:16:35;;;;;;;10.48;2.47;;;;;;;;;;4846863;29;20205;-85
2021/01/13 09:19:06;;;;;;;7.07;2.80;;;;;;;;;;4846310;29;20237;-84
2021/01/13 09:21:35;;;;;;;3.75;2.67;;;;;;;;;;4846916;29;20198;-84
2021/01/13 09:24:03;;;;;;;6.53;2.58;;;;;;;;;;4848408;29;20582;-85
2021/01/13 09:26:34;;;;;;;8.32;2.35;;;;;;;;;;4850128;29;20209;-85
2021/01/13 09:29:05;;;;;;;6.20;2.47;;;;;;;;;;4850090;29;20198;-84
2021/01/13 09:31:33;;;;;;;6.93;2.25;;;;;;;;;;4850709;29;20231;-85
2021/01/13 09:34:00;;;;;;;6.53;2.60;;;;;;;;;;4850182;29;20222;-84
2021/01/13 09:36:27;;;;;;;5.03;3.38;;;;;;;;;;4812080;29;20210;-85
2021/01/13 09:39:14;;;;;;;10.05;4.20;;;;;;;;;;4812088;29;20210;-86
2021/01/13 09:41:48;;;;;;;5.93;3.53;;;;;;;;;;4812470;29;20551;-86
2021/01/13 09:44:16;;;;;;;8.65;4.70;;;;;;;;;;4812435;29;20223;-85
2021/01/13 09:46:43;;;;;;;9.52;4.90;;;;;;;;;;4811797;29;20207;-86
2021/01/13 09:49:12;;;;;;;8.95;4.03;;;;;;;;;;4812334;29;20241;-85
2021/01/13 09:51:40;;;;;;;5.93;2.65;;;;;;;;;;4812017;29;20245;-86
2021/01/13 09:54:11;;;;;;;4.68;3.22;;;;;;;;;;4812233;29;20206;-84
2021/01/13 09:56:38;;;;;;;7.15;3.13;;;;;;;;;;4811947;29;20609;-86
2021/01/13 09:59:08;;;;;;;7.63;3.53;;;;;;;;;;4781911;29;20235;-85
2021/01/13 10:01:37;;;;;;;10.40;3.70;;;;;;;;;;4832446;29;20217;-85
2021/01/13 10:04:11;;;;;;;11.88;2.97;;;;;;;;;;4831909;29;20208;-85
2021/01/13 10:06:41;;;;;;;9.68;3.28;;;;;;;;;;4831028;29;20194;-85
2021/01/13 10:09:11;;;;;;;5.18;2.03;;;;;;;;;;4831527;29;20556;-84
2021/01/13 10:11:39;;;;;;;7.60;3.92;;;;;;;;;;4831300;29;20190;-86
2021/01/13 10:14:09;;;;;;;5.22;2.40;;;;;;;;;;4831147;29;20553;-85
2021/01/13 10:16:41;;;;;;;6.75;2.78;;;;;;;;;;4831155;29;20221;-86
2021/01/13 10:19:09;;;;;;;8.95;3.28;;;;;;;;;;4828985;29;20245;-86
2021/01/13 10:21:38;;;;;;;5.65;2.63;;;;;;;;;;4831135;29;20208;-86
2021/01/13 10:24:06;;;;;;;4.45;2.63;;;;;;;;;;4831135;29;20186;-86
2021/01/13 10:26:39;;;;;;;4.38;2.15;;;;;;;;;;4830574;29;20209;-86
2021/01/13 10:29:08;;;;;;;6.30;2.70;;;;;;;;;;4830606;29;20198;-84
2021/01/13 10:31:35;;;;;;;6.18;2.28;;;;;;;;;;4830203;29;20224;-86
2021/01/13 10:34:04;;;;;;;10.25;2.97;;;;;;;;;;4830072;29;20200;-85
2021/01/13 10:36:45;;;;;;;5.35;2.40;;;;;;;;;;4833837;29;20546;-88
2021/01/13 10:39:21;;;;;;;4.22;2.65;;;;;;;;;;4849165;29;20193;-87
2021/01/13 10:41:49;;;;;;;3.88;2.22;;;;;;;;;;4803965;29;20242;-86
2021/01/13 10:44:20;;;;;;;7.18;3.33;;;;;;;;;;4849320;29;20204;-87
2021/01/13 10:46:54;;;;;;;4.93;2.28;;;;;;;;;;4843870;29;20210;-87
2021/01/13 10:49:27;;;;;;;7.05;2.95;;;;;;;;;;4830753;29;20225;-88
2021/01/13 10:51:56;;;;;;;5.03;2.15;;;;;;;;;;4830711;29;20553;-86
2021/01/13 10:54:26;;;;;;;3.22;2.10;;;;;;;;;;4830746;29;20190;-86
2021/01/13 10:56:56;;;;;;;6.90;2.78;;;;;;;;;;4830451;29;20206;-86
2021/01/13 10:59:24;;;;;;;3.20;2.67;;;;;;;;;;4830250;29;20198;-86
2021/01/13 11:01:54;;;;;;;5.47;2.15;;;;;;;;;;4831760;29;20212;-86
2021/01/13 11:04:36;;;;;;;6.45;2.95;;;;;;;;;;4830159;29;20326;-85
2021/01/13 11:07:10;;;;;;;5.88;2.40;;;;;;;;;;4830163;29;20493;-86
2021/01/13 11:09:41;;;;;;;5.10;2.55;;;;;;;;;;4844686;29;20193;-89
2021/01/13 11:12:10;;;;;;;6.35;2.78;;;;;;;;;;4848996;29;20220;-90
2021/01/13 11:14:46;;;;;;;5.57;2.33;;;;;;;;;;4848971;29;20218;-91
2021/01/13 11:17:15;;;;;;;6.05;2.50;;;;;;;;;;4849303;29;20486;-88
2021/01/13 11:19:46;;;;;;;3.65;2.00;;;;;;;;;;4848594;29;20304;-90
2021/01/13 11:22:14;;;;;;;8.50;3.30;;;;;;;;;;4848836;29;20219;-90
2021/01/13 11:24:47;;;;;;;8.80;3.53;;;;;;;;;;4833779;29;20351;-87
2021/01/13 11:27:17;;;;;;;3.97;1.98;;;;;;;;;;4830830;29;20471;-88
2021/01/13 11:29:49;;;;;;;6.97;3.13;;;;;;;;;;4830029;29;20648;-89
2021/01/13 11:32:19;;;;;;;6.18;2.15;;;;;;;;;;4830530;29;20275;-88
2021/01/13 11:34:51;;;;;;;9.80;2.40;;;;;;;;;;4831401;29;20213;-88
2021/01/13 11:37:44;;;;;;;6.43;2.92;;;;;;;;;;4830246;29;20197;-91
2021/01/13 11:40:38;;;;;;;4.10;1.73;;;;;;;;;;4830693;29;20466;-91
2021/01/13 11:43:49;;;;;;;4.30;2.00;;;;;;;;;;4833347;29;20201;-89
2021/01/13 11:46:23;;;;;;;4.43;2.28;;;;;;;;;;4847721;29;20204;-89
2021/01/13 11:49:39;;;;;;;5.35;2.00;;;;;;;;;;4848646;29;20225;-90
2021/01/13 11:52:08;;;;;;;4.88;2.42;;;;;;;;;;4841793;29;20277;-87
2021/01/13 11:54:39;;;;;;;5.43;2.75;;;;;;;;;;4830556;29;20586;-89
2021/01/13 11:57:22;;;;;;;6.20;2.60;;;;;;;;;;4829826;29;20230;-89
2021/01/13 11:59:52;;;;;;;3.67;2.00;;;;;;;;;;4829779;29;20233;-89
2021/01/13 12:02:22;;;;;;;5.78;2.10;;;;;;;;;;4830140;29;20218;-89
2021/01/13 12:04:49;;;;;;;4.13;2.22;;;;;;;;;;4846268;29;20261;-89
2021/01/13 12:07:17;;;;;;;3.90;2.60;;;;;;;;;;4830176;29;20220;-88
2021/01/13 12:09:44;;;;;;;3.83;2.55;;;;;;;;;;4829635;29;20194;-89
2021/01/13 12:12:28;;;;;;;2.55;1.80;;;;;;;;;;4830048;29;20210;-89
2021/01/13 12:15:05;;;;;;;3.45;2.20;;;;;;;;;;4829933;29;20210;-89
2021/01/13 12:17:35;;;;;;;7.32;1.92;;;;;;;;;;4829409;29;20237;-87
2021/01/13 12:20:03;;;;;;;5.72;2.08;;;;;;;;;;4828227;29;20752;-89
2021/01/13 12:22:34;;;;;;;5.50;1.85;;;;;;;;;;4833151;29;20198;-89
2021/01/13 12:25:01;;;;;;;9.43;2.25;;;;;;;;;;4841478;29;20277;-88
2021/01/13 12:27:29;;;;;;;4.68;2.05;;;;;;;;;;4824759;29;20260;-88
2021/01/13 12:30:16;;;;;;;6.80;2.20;;;;;;;;;;4829523;29;20499;-90
2021/01/13 12:32:44;;;;;;;4.57;2.00;;;;;;;;;;4835694;29;20230;-89
2021/01/13 12:35:13;;;;;;;6.68;1.85;;;;;;;;;;4829241;29;20359;-90
2021/01/13 12:37:48;;;;;;;4.13;2.00;;;;;;;;;;4839269;29;20573;-89
2021/01/13 12:40:18;;;;;;;6.70;2.35;;;;;;;;;;4841463;29;20209;-89
2021/01/13 12:42:45;;;;;;;6.28;2.05;;;;;;;;;;4846194;29;20643;-88
2021/01/13 12:45:12;;;;;;;6.72;2.42;;;;;;;;;;4847480;29;20280;-87
2021/01/13 12:47:39;;;;;;;5.03;1.90;;;;;;;;;;4844831;29;20593;-89
2021/01/13 12:50:09;;;;;;;7.63;2.67;;;;;;;;;;4829205;29;20291;-89
2021/01/13 12:52:36;;;;;;;5.20;2.10;;;;;;;;;;4829454;29;20560;-89
2021/01/13 12:55:06;;;;;;;8.10;2.70;;;;;;;;;;4829761;29;20194;-87
2021/01/13 12:57:34;;;;;;;2.83;1.75;;;;;;;;;;4829723;29;20224;-90
2021/01/13 13:00:01;;;;;;;4.90;2.78;;;;;;;;;;4832916;29;20285;-88
2021/01/13 13:02:28;;;;;;;6.57;2.00;;;;;;;;;;4832126;29;20256;-87
2021/01/13 13:04:55;;;;;;;4.50;1.70;;;;;;;;;;4832222;29;20190;-85
2021/01/13 13:07:23;;;;;;;2.40;2.10;;;;;;;;;;4837890;29;20205;-86
2021/01/13 13:09:50;;;;;;;2.55;1.70;;;;;;;;;;4851691;29;20482;-89
2021/01/13 13:12:17;;;;;;;4.28;2.33;;;;;;;;;;4851344;29;20196;-93
2021/01/13 13:14:44;;;;;;;4.70;2.38;;;;;;;;;;4850259;29;20292;-88
2021/01/13 13:17:14;;;;;;;2.13;1.60;;;;;;;;;;4850009;29;20567;-86
2021/01/13 13:19:41;;;;;;;4.63;1.88;;;;;;;;;;4850596;29;20264;-86
2021/01/13 13:22:09;;;;;;;3.08;2.10;;;;;;;;;;4850820;29;20219;-87
2021/01/13 13:24:37;;;;;;;3.08;1.70;;;;;;;;;;4850649;29;20226;-86
2021/01/13 13:27:08;;;;;;;6.78;2.28;;;;;;;;;;4848639;29;20661;-86
2021/01/13 13:29:35;;;;;;;3.83;2.28;;;;;;;;;;4831502;29;20213;-86
2021/01/13 13:32:02;;;;;;;4.68;2.13;;;;;;;;;;4831780;29;20201;-87
2021/01/13 13:34:29;;;;;;;4.40;1.83;;;;;;;;;;4831901;29;20546;-89
2021/01/13 13:36:59;;;;;;;4.53;2.03;;;;;;;;;;4831867;29;20198;-86
2021/01/13 13:39:26;;;;;;;7.45;2.85;;;;;;;;;;4832210;29;20194;-87
2021/01/13 13:41:58;;;;;;;5.00;2.28;;;;;;;;;;4831716;29;20596;-88
2021/01/13 13:44:29;;;;;;;5.45;2.03;;;;;;;;;;4831955;29;20225;-88
2021/01/13 13:46:56;;;;;;;6.38;2.55;;;;;;;;;;4831887;29;20508;-88
2021/01/13 13:49:24;;;;;;;4.82;2.30;;;;;;;;;;4831658;29;20228;-88
2021/01/13 13:51:51;;;;;;;6.80;2.58;;;;;;;;;;4832776;29;20195;-89
2021/01/13 13:54:18;;;;;;;2.90;1.98;;;;;;;;;;4831860;29;20294;-88
2021/01/13 13:56:45;;;;;;;8.60;2.45;;;;;;;;;;4839596;29;20579;-89
2021/01/13 13:59:13;;;;;;;2.00;1.80;;;;;;;;;;4850293;29;20182;-88
2021/01/13 14:01:40;;;;;;;2.50;1.50;;;;;;;;;;4849885;29;20688;-88
2021/01/13 14:04:07;;;;;;;4.20;1.90;;;;;;;;;;4849941;29;20232;-89
2021/01/13 14:06:34;;;;;;;6.25;2.13;;;;;;;;;;4850112;29;20193;-89
2021/01/13 14:09:01;;;;;;;7.10;1.88;;;;;;;;;;4850114;29;20219;-88
2021/01/13 14:11:28;;;;;;;2.85;2.00;;;;;;;;;;4849853;29;20212;-88
2021/01/13 14:13:55;;;;;;;3.03;2.10;;;;;;;;;;4850138;29;20201;-89
2021/01/13 14:16:23;;;;;;;2.35;1.77;;;;;;;;;;4849746;29;20185;-88
2021/01/13 14:18:50;;;;;;;3.90;2.00;;;;;;;;;;4850039;29;20271;-88
2021/01/13 14:21:17;;;;;;;3.72;2.20;;;;;;;;;;4849538;29;20545;-89
2021/01/13 14:23:44;;;;;;;5.82;1.80;;;;;;;;;;4849673;29;20189;-88
2021/01/13 14:26:11;;;;;;;3.45;2.10;;;;;;;;;;4849812;29;20571;-87
2021/01/13 14:28:40;;;;;;;4.18;2.40;;;;;;;;;;4849434;29;20265;-88
2021/01/13 14:31:07;;;;;;;5.10;2.92;;;;;;;;;;4849505;29;20189;-88
2021/01/13 14:33:34;;;;;;;5.50;2.45;;;;;;;;;;4849691;29;20190;-87
2021/01/13 14:36:01;;;;;;;5.85;3.15;;;;;;;;;;4844685;29;20198;-86
2021/01/13 14:38:28;;;;;;;2.47;1.70;;;;;;;;;;4831054;29;20235;-88
2021/01/13 14:40:55;;;;;;;4.30;2.13;;;;;;;;;;4847849;29;20230;-88
2021/01/13 14:43:22;;;;;;;3.55;2.28;;;;;;;;;;4848307;29;20194;-88
2021/01/13 14:45:49;;;;;;;2.50;1.88;;;;;;;;;;4835003;29;20212;-85
2021/01/13 14:48:16;;;;;;;3.38;2.40;;;;;;;;;;4830285;29;20502;-86
2021/01/13 14:50:43;;;;;;;3.75;1.77;;;;;;;;;;4830309;29;20221;-87
2021/01/13 14:53:10;;;;;;;4.63;2.05;;;;;;;;;;4830740;29;20204;-85
2021/01/13 14:55:37;;;;;;;7.38;2.08;;;;;;;;;;4830525;29;20214;-85
2021/01/13 14:58:04;;;;;;;2.25;1.65;;;;;;;;;;4838205;29;20201;-85
2021/01/13 15:00:32;;;;;;;2.45;2.00;;;;;;;;;;4848293;29;20215;-87
2021/01/13 15:02:59;;;;;;;5.63;1.90;;;;;;;;;;4789813;29;20229;-85
2021/01/13 15:05:25;;;;;;;5.32;1.60;;;;;;;;;;4829225;29;20214;-86
2021/01/13 15:07:53;;;;;;;3.08;1.70;;;;;;;;;;4830198;29;20206;-86
2021/01/13 15:10:20;;;;;;;3.13;1.73;;;;;;;;;;4848231;29;20205;-86
2021/01/13 15:12:47;;;;;;;8.13;2.72;;;;;;;;;;4848591;29;20205;-85
2021/01/13 15:15:14;;;;;;;3.47;1.85;;;;;;;;;;4848644;29;20196;-84
2021/01/13 15:17:41;;;;;;;5.90;2.03;;;;;;;;;;4848197;29;20201;-86
2021/01/13 15:20:10;;;;;;;2.20;1.90;;;;;;;;;;4845321;29;20218;-87